sensor_id;sensor_type;location;lat;lon;timestamp;P1;durP1;ratioP1;P2;durP2;ratioP2
21665;SDS011;10994;45.486;9.190;2023-04-23T00:00:15;17.33;;;13.63;;
21665;SDS011;10994;45.486;9.190;2023-04-23T00:02:42;19.43;;;13.73;;
21665;SDS011;10994;45.486;9.190;2023-04-23T00:05:09;15.33;;;13.30;;
21665;SDS011;10994;45.486;9.190;2023-04-23T00:07:37;24.30;;;14.83;;
21665;SDS011;10994;45.486;9.190;2023-04-23T00:10:03;18.20;;;14.57;;
21665;SDS011;10994;45.486;9.190;2023-04-23T00:12:32;22.03;;;14.37;;
21665;SDS011;10994;45.486;9.190;2023-04-23T00:14:58;18.97;;;13.03;;
21665;SDS011;10994;45.486;9.190;2023-04-23T00:17:24;16.87;;;12.97;;
21665;SDS011;10994;45.486;9.190;2023-04-23T00:19:50;17.03;;;13.07;;
21665;SDS011;10994;45.486;9.190;2023-04-23T00:22:16;16.13;;;12.47;;
21665;SDS011;10994;45.486;9.190;2023-04-23T00:24:42;19.77;;;13.13;;
21665;SDS011;10994;45.486;9.190;2023-04-23T00:27:08;16.03;;;12.67;;
21665;SDS011;10994;45.486;9.190;2023-04-23T00:29:33;15.60;;;12.43;;
21665;SDS011;10994;45.486;9.190;2023-04-23T00:31:59;19.67;;;12.37;;
21665;SDS011;10994;45.486;9.190;2023-04-23T00:34:25;17.17;;;12.73;;
21665;SDS011;10994;45.486;9.190;2023-04-23T00:36:51;14.63;;;12.63;;
21665;SDS011;10994;45.486;9.190;2023-04-23T00:39:17;14.60;;;12.73;;
21665;SDS011;10994;45.486;9.190;2023-04-23T00:41:44;17.07;;;12.60;;
21665;SDS011;10994;45.486;9.190;2023-04-23T00:44:10;16.80;;;13.17;;
21665;SDS011;10994;45.486;9.190;2023-04-23T00:46:37;13.97;;;12.10;;
21665;SDS011;10994;45.486;9.190;2023-04-23T00:49:03;16.03;;;12.90;;
21665;SDS011;10994;45.486;9.190;2023-04-23T00:51:28;14.23;;;12.57;;
21665;SDS011;10994;45.486;9.190;2023-04-23T00:53:56;14.17;;;12.67;;
21665;SDS011;10994;45.486;9.190;2023-04-23T00:56:22;17.90;;;13.67;;
21665;SDS011;10994;45.486;9.190;2023-04-23T00:58:50;17.10;;;12.83;;
21665;SDS011;10994;45.486;9.190;2023-04-23T01:01:16;13.70;;;12.13;;
21665;SDS011;10994;45.486;9.190;2023-04-23T01:03:45;18.20;;;13.73;;
21665;SDS011;10994;45.486;9.190;2023-04-23T01:06:12;13.97;;;12.43;;
21665;SDS011;10994;45.486;9.190;2023-04-23T01:08:38;13.80;;;12.40;;
21665;SDS011;10994;45.486;9.190;2023-04-23T01:11:07;14.90;;;13.33;;
21665;SDS011;10994;45.486;9.190;2023-04-23T01:13:33;14.93;;;12.83;;
21665;SDS011;10994;45.486;9.190;2023-04-23T01:15:59;16.27;;;12.40;;
21665;SDS011;10994;45.486;9.190;2023-04-23T01:18:26;13.83;;;10.13;;
21665;SDS011;10994;45.486;9.190;2023-04-23T01:20:53;11.60;;;10.03;;
21665;SDS011;10994;45.486;9.190;2023-04-23T01:23:19;11.23;;;8.87;;
21665;SDS011;10994;45.486;9.190;2023-04-23T01:25:45;10.97;;;9.87;;
21665;SDS011;10994;45.486;9.190;2023-04-23T01:28:11;10.60;;;8.07;;
21665;SDS011;10994;45.486;9.190;2023-04-23T01:30:39;10.33;;;8.20;;
21665;SDS011;10994;45.486;9.190;2023-04-23T01:33:07;10.03;;;7.50;;
21665;SDS011;10994;45.486;9.190;2023-04-23T01:35:34;9.87;;;7.83;;
21665;SDS011;10994;45.486;9.190;2023-04-23T01:38:01;8.50;;;7.50;;
21665;SDS011;10994;45.486;9.190;2023-04-23T01:40:28;9.53;;;7.33;;
21665;SDS011;10994;45.486;9.190;2023-04-23T01:42:53;9.40;;;7.33;;
21665;SDS011;10994;45.486;9.190;2023-04-23T01:45:20;8.13;;;7.33;;
21665;SDS011;10994;45.486;9.190;2023-04-23T01:47:47;9.13;;;6.97;;
21665;SDS011;10994;45.486;9.190;2023-04-23T01:50:12;8.50;;;7.50;;
21665;SDS011;10994;45.486;9.190;2023-04-23T01:52:40;8.40;;;6.93;;
21665;SDS011;10994;45.486;9.190;2023-04-23T01:55:06;7.87;;;6.70;;
21665;SDS011;10994;45.486;9.190;2023-04-23T01:57:33;8.77;;;7.27;;
21665;SDS011;10994;45.486;9.190;2023-04-23T02:00:04;9.20;;;7.30;;
21665;SDS011;10994;45.486;9.190;2023-04-23T02:02:39;9.13;;;7.73;;
21665;SDS011;10994;45.486;9.190;2023-04-23T02:05:16;9.47;;;7.37;;
21665;SDS011;10994;45.486;9.190;2023-04-23T02:07:43;7.70;;;6.63;;
21665;SDS011;10994;45.486;9.190;2023-04-23T02:10:10;7.60;;;6.53;;
21665;SDS011;10994;45.486;9.190;2023-04-23T02:12:36;8.77;;;6.50;;
21665;SDS011;10994;45.486;9.190;2023-04-23T02:15:03;8.20;;;6.17;;
21665;SDS011;10994;45.486;9.190;2023-04-23T02:17:30;8.53;;;6.13;;
21665;SDS011;10994;45.486;9.190;2023-04-23T02:19:56;8.10;;;6.97;;
21665;SDS011;10994;45.486;9.190;2023-04-23T02:22:22;6.47;;;5.63;;
21665;SDS011;10994;45.486;9.190;2023-04-23T02:24:50;9.07;;;6.03;;
21665;SDS011;10994;45.486;9.190;2023-04-23T02:27:17;8.97;;;6.03;;
21665;SDS011;10994;45.486;9.190;2023-04-23T02:29:43;6.07;;;4.87;;
21665;SDS011;10994;45.486;9.190;2023-04-23T02:32:10;8.00;;;5.50;;
21665;SDS011;10994;45.486;9.190;2023-04-23T02:34:36;4.90;;;4.40;;
21665;SDS011;10994;45.486;9.190;2023-04-23T02:37:02;6.43;;;4.90;;
21665;SDS011;10994;45.486;9.190;2023-04-23T02:39:31;4.63;;;4.17;;
21665;SDS011;10994;45.486;9.190;2023-04-23T02:41:58;4.97;;;4.13;;
21665;SDS011;10994;45.486;9.190;2023-04-23T02:44:24;4.77;;;4.30;;
21665;SDS011;10994;45.486;9.190;2023-04-23T02:46:51;6.00;;;4.57;;
21665;SDS011;10994;45.486;9.190;2023-04-23T02:49:17;5.00;;;4.33;;
21665;SDS011;10994;45.486;9.190;2023-04-23T02:51:44;4.97;;;4.47;;
21665;SDS011;10994;45.486;9.190;2023-04-23T02:54:11;8.67;;;4.40;;
21665;SDS011;10994;45.486;9.190;2023-04-23T02:56:37;4.30;;;3.90;;
21665;SDS011;10994;45.486;9.190;2023-04-23T02:59:03;4.43;;;3.97;;
21665;SDS011;10994;45.486;9.190;2023-04-23T03:01:30;4.90;;;4.00;;
21665;SDS011;10994;45.486;9.190;2023-04-23T03:03:57;4.90;;;4.40;;
21665;SDS011;10994;45.486;9.190;2023-04-23T03:06:23;6.63;;;4.53;;
21665;SDS011;10994;45.486;9.190;2023-04-23T03:08:49;4.40;;;4.00;;
21665;SDS011;10994;45.486;9.190;2023-04-23T03:11:15;4.83;;;3.80;;
21665;SDS011;10994;45.486;9.190;2023-04-23T03:13:41;4.87;;;3.87;;
21665;SDS011;10994;45.486;9.190;2023-04-23T03:16:08;5.10;;;4.30;;
21665;SDS011;10994;45.486;9.190;2023-04-23T03:18:34;4.40;;;4.00;;
21665;SDS011;10994;45.486;9.190;2023-04-23T03:21:01;5.77;;;5.03;;
21665;SDS011;10994;45.486;9.190;2023-04-23T03:23:28;6.83;;;5.60;;
21665;SDS011;10994;45.486;9.190;2023-04-23T03:25:54;4.70;;;4.30;;
21665;SDS011;10994;45.486;9.190;2023-04-23T03:28:20;5.67;;;4.70;;
21665;SDS011;10994;45.486;9.190;2023-04-23T03:30:46;4.77;;;4.17;;
21665;SDS011;10994;45.486;9.190;2023-04-23T03:33:12;5.67;;;4.50;;
21665;SDS011;10994;45.486;9.190;2023-04-23T03:35:38;5.87;;;4.30;;
21665;SDS011;10994;45.486;9.190;2023-04-23T03:38:10;7.53;;;4.70;;
21665;SDS011;10994;45.486;9.190;2023-04-23T03:40:36;5.13;;;4.57;;
21665;SDS011;10994;45.486;9.190;2023-04-23T03:43:05;5.47;;;4.60;;
21665;SDS011;10994;45.486;9.190;2023-04-23T03:46:03;5.13;;;4.60;;
21665;SDS011;10994;45.486;9.190;2023-04-23T03:48:33;5.47;;;4.83;;
21665;SDS011;10994;45.486;9.190;2023-04-23T03:51:03;5.07;;;4.57;;
21665;SDS011;10994;45.486;9.190;2023-04-23T03:53:40;7.67;;;4.87;;
21665;SDS011;10994;45.486;9.190;2023-04-23T03:56:25;5.80;;;4.83;;
21665;SDS011;10994;45.486;9.190;2023-04-23T03:59:04;7.00;;;5.67;;
21665;SDS011;10994;45.486;9.190;2023-04-23T04:01:30;5.47;;;4.97;;
21665;SDS011;10994;45.486;9.190;2023-04-23T04:03:57;6.23;;;5.63;;
21665;SDS011;10994;45.486;9.190;2023-04-23T04:06:23;8.40;;;5.73;;
21665;SDS011;10994;45.486;9.190;2023-04-23T04:08:49;6.60;;;5.93;;
21665;SDS011;10994;45.486;9.190;2023-04-23T04:11:15;8.93;;;6.67;;
21665;SDS011;10994;45.486;9.190;2023-04-23T04:13:40;7.53;;;6.73;;
21665;SDS011;10994;45.486;9.190;2023-04-23T04:16:06;8.50;;;6.70;;
21665;SDS011;10994;45.486;9.190;2023-04-23T04:18:32;8.97;;;7.30;;
21665;SDS011;10994;45.486;9.190;2023-04-23T04:20:57;7.93;;;7.13;;
21665;SDS011;10994;45.486;9.190;2023-04-23T04:23:23;9.83;;;7.93;;
21665;SDS011;10994;45.486;9.190;2023-04-23T04:25:49;10.20;;;8.23;;
21665;SDS011;10994;45.486;9.190;2023-04-23T04:28:15;11.40;;;9.73;;
21665;SDS011;10994;45.486;9.190;2023-04-23T04:30:41;12.93;;;10.17;;
21665;SDS011;10994;45.486;9.190;2023-04-23T04:33:08;11.07;;;9.50;;
21665;SDS011;10994;45.486;9.190;2023-04-23T04:35:34;12.27;;;9.93;;
21665;SDS011;10994;45.486;9.190;2023-04-23T04:37:59;10.90;;;9.30;;
21665;SDS011;10994;45.486;9.190;2023-04-23T04:40:25;11.40;;;8.87;;
21665;SDS011;10994;45.486;9.190;2023-04-23T04:42:52;11.73;;;9.30;;
21665;SDS011;10994;45.486;9.190;2023-04-23T04:45:19;10.10;;;9.10;;
21665;SDS011;10994;45.486;9.190;2023-04-23T04:47:45;10.43;;;9.33;;
21665;SDS011;10994;45.486;9.190;2023-04-23T04:50:10;13.23;;;8.97;;
21665;SDS011;10994;45.486;9.190;2023-04-23T04:52:36;9.87;;;8.73;;
21665;SDS011;10994;45.486;9.190;2023-04-23T04:55:02;11.67;;;9.23;;
21665;SDS011;10994;45.486;9.190;2023-04-23T04:57:31;9.90;;;8.13;;
21665;SDS011;10994;45.486;9.190;2023-04-23T04:59:57;10.73;;;9.17;;
21665;SDS011;10994;45.486;9.190;2023-04-23T05:02:26;12.53;;;9.93;;
21665;SDS011;10994;45.486;9.190;2023-04-23T05:04:52;10.40;;;9.13;;
21665;SDS011;10994;45.486;9.190;2023-04-23T05:07:17;9.83;;;8.67;;
21665;SDS011;10994;45.486;9.190;2023-04-23T05:09:43;11.27;;;9.10;;
21665;SDS011;10994;45.486;9.190;2023-04-23T05:12:09;9.47;;;8.47;;
21665;SDS011;10994;45.486;9.190;2023-04-23T05:14:35;10.87;;;8.77;;
21665;SDS011;10994;45.486;9.190;2023-04-23T05:17:00;11.10;;;8.90;;
21665;SDS011;10994;45.486;9.190;2023-04-23T05:19:26;9.50;;;8.47;;
21665;SDS011;10994;45.486;9.190;2023-04-23T05:21:51;9.47;;;8.50;;
21665;SDS011;10994;45.486;9.190;2023-04-23T05:24:17;9.37;;;8.37;;
21665;SDS011;10994;45.486;9.190;2023-04-23T05:26:43;11.43;;;8.67;;
21665;SDS011;10994;45.486;9.190;2023-04-23T05:29:08;10.40;;;8.33;;
21665;SDS011;10994;45.486;9.190;2023-04-23T05:31:34;9.83;;;7.87;;
21665;SDS011;10994;45.486;9.190;2023-04-23T05:33:59;12.73;;;8.03;;
21665;SDS011;10994;45.486;9.190;2023-04-23T05:36:25;12.70;;;7.93;;
21665;SDS011;10994;45.486;9.190;2023-04-23T05:38:51;10.97;;;7.93;;
21665;SDS011;10994;45.486;9.190;2023-04-23T05:41:17;8.80;;;7.87;;
21665;SDS011;10994;45.486;9.190;2023-04-23T05:43:42;9.57;;;8.00;;
21665;SDS011;10994;45.486;9.190;2023-04-23T05:46:08;11.00;;;8.20;;
21665;SDS011;10994;45.486;9.190;2023-04-23T05:48:34;9.20;;;8.20;;
21665;SDS011;10994;45.486;9.190;2023-04-23T05:50:59;11.00;;;9.63;;
21665;SDS011;10994;45.486;9.190;2023-04-23T05:53:26;11.60;;;8.30;;
21665;SDS011;10994;45.486;9.190;2023-04-23T05:55:52;9.00;;;7.57;;
21665;SDS011;10994;45.486;9.190;2023-04-23T05:58:18;8.70;;;7.57;;
21665;SDS011;10994;45.486;9.190;2023-04-23T06:00:44;8.93;;;7.40;;
21665;SDS011;10994;45.486;9.190;2023-04-23T06:03:09;7.80;;;6.67;;
21665;SDS011;10994;45.486;9.190;2023-04-23T06:05:35;6.80;;;6.10;;
21665;SDS011;10994;45.486;9.190;2023-04-23T06:08:02;6.90;;;6.20;;
21665;SDS011;10994;45.486;9.190;2023-04-23T06:10:28;7.80;;;6.60;;
21665;SDS011;10994;45.486;9.190;2023-04-23T06:12:54;8.13;;;7.33;;
21665;SDS011;10994;45.486;9.190;2023-04-23T06:15:20;8.67;;;6.50;;
21665;SDS011;10994;45.486;9.190;2023-04-23T06:17:50;9.07;;;6.93;;
21665;SDS011;10994;45.486;9.190;2023-04-23T06:20:17;7.27;;;6.40;;
21665;SDS011;10994;45.486;9.190;2023-04-23T06:22:43;6.30;;;5.53;;
21665;SDS011;10994;45.486;9.190;2023-04-23T06:25:09;7.80;;;5.80;;
21665;SDS011;10994;45.486;9.190;2023-04-23T06:27:34;9.03;;;5.37;;
21665;SDS011;10994;45.486;9.190;2023-04-23T06:30:07;8.57;;;5.17;;
21665;SDS011;10994;45.486;9.190;2023-04-23T06:32:34;6.07;;;5.33;;
21665;SDS011;10994;45.486;9.190;2023-04-23T06:34:59;6.77;;;5.93;;
21665;SDS011;10994;45.486;9.190;2023-04-23T06:37:25;6.67;;;5.33;;
21665;SDS011;10994;45.486;9.190;2023-04-23T06:39:52;5.53;;;4.93;;
21665;SDS011;10994;45.486;9.190;2023-04-23T06:42:17;6.07;;;5.03;;
21665;SDS011;10994;45.486;9.190;2023-04-23T06:44:55;5.37;;;4.77;;
21665;SDS011;10994;45.486;9.190;2023-04-23T06:47:23;6.50;;;4.43;;
21665;SDS011;10994;45.486;9.190;2023-04-23T06:49:49;6.80;;;5.67;;
21665;SDS011;10994;45.486;9.190;2023-04-23T06:52:14;6.97;;;5.80;;
21665;SDS011;10994;45.486;9.190;2023-04-23T06:54:40;5.37;;;4.67;;
21665;SDS011;10994;45.486;9.190;2023-04-23T06:57:06;5.00;;;4.50;;
21665;SDS011;10994;45.486;9.190;2023-04-23T06:59:31;4.87;;;4.07;;
21665;SDS011;10994;45.486;9.190;2023-04-23T07:01:58;5.67;;;4.23;;
21665;SDS011;10994;45.486;9.190;2023-04-23T07:04:24;4.87;;;4.33;;
21665;SDS011;10994;45.486;9.190;2023-04-23T07:06:50;4.73;;;4.30;;
21665;SDS011;10994;45.486;9.190;2023-04-23T07:09:18;4.33;;;3.93;;
21665;SDS011;10994;45.486;9.190;2023-04-23T07:11:44;4.63;;;3.70;;
21665;SDS011;10994;45.486;9.190;2023-04-23T07:14:09;3.50;;;3.20;;
21665;SDS011;10994;45.486;9.190;2023-04-23T07:16:35;4.73;;;3.73;;
21665;SDS011;10994;45.486;9.190;2023-04-23T07:19:01;3.77;;;3.47;;
21665;SDS011;10994;45.486;9.190;2023-04-23T07:21:27;5.87;;;3.37;;
21665;SDS011;10994;45.486;9.190;2023-04-23T07:23:56;3.63;;;3.00;;
21665;SDS011;10994;45.486;9.190;2023-04-23T07:26:30;4.57;;;3.00;;
21665;SDS011;10994;45.486;9.190;2023-04-23T07:28:57;3.43;;;3.10;;
21665;SDS011;10994;45.486;9.190;2023-04-23T07:31:22;3.50;;;3.20;;
21665;SDS011;10994;45.486;9.190;2023-04-23T07:33:48;5.03;;;3.40;;
21665;SDS011;10994;45.486;9.190;2023-04-23T07:36:14;3.83;;;3.50;;
21665;SDS011;10994;45.486;9.190;2023-04-23T07:38:40;4.07;;;3.60;;
21665;SDS011;10994;45.486;9.190;2023-04-23T07:41:05;4.57;;;3.47;;
21665;SDS011;10994;45.486;9.190;2023-04-23T07:43:31;4.57;;;3.77;;
21665;SDS011;10994;45.486;9.190;2023-04-23T07:45:57;3.47;;;3.00;;
21665;SDS011;10994;45.486;9.190;2023-04-23T07:48:22;3.43;;;3.10;;
21665;SDS011;10994;45.486;9.190;2023-04-23T07:50:50;3.57;;;3.27;;
21665;SDS011;10994;45.486;9.190;2023-04-23T07:53:16;3.97;;;3.20;;
21665;SDS011;10994;45.486;9.190;2023-04-23T07:55:42;4.70;;;3.03;;
21665;SDS011;10994;45.486;9.190;2023-04-23T07:58:08;4.53;;;2.67;;
21665;SDS011;10994;45.486;9.190;2023-04-23T08:00:34;2.50;;;2.30;;
21665;SDS011;10994;45.486;9.190;2023-04-23T08:03:00;2.80;;;2.50;;
21665;SDS011;10994;45.486;9.190;2023-04-23T08:05:25;3.30;;;2.43;;
21665;SDS011;10994;45.486;9.190;2023-04-23T08:07:51;2.03;;;1.83;;
21665;SDS011;10994;45.486;9.190;2023-04-23T08:10:17;2.70;;;2.13;;
21665;SDS011;10994;45.486;9.190;2023-04-23T08:12:42;2.47;;;2.07;;
21665;SDS011;10994;45.486;9.190;2023-04-23T08:15:08;4.27;;;2.00;;
21665;SDS011;10994;45.486;9.190;2023-04-23T08:17:38;3.27;;;1.90;;
21665;SDS011;10994;45.486;9.190;2023-04-23T08:20:04;2.13;;;1.90;;
21665;SDS011;10994;45.486;9.190;2023-04-23T08:22:31;3.90;;;2.17;;
21665;SDS011;10994;45.486;9.190;2023-04-23T08:24:56;3.77;;;1.83;;
21665;SDS011;10994;45.486;9.190;2023-04-23T08:27:22;2.20;;;1.40;;
21665;SDS011;10994;45.486;9.190;2023-04-23T08:29:48;1.70;;;1.60;;
21665;SDS011;10994;45.486;9.190;2023-04-23T08:32:13;3.27;;;1.70;;
21665;SDS011;10994;45.486;9.190;2023-04-23T08:34:39;1.87;;;1.70;;
21665;SDS011;10994;45.486;9.190;2023-04-23T08:37:04;2.00;;;1.67;;
21665;SDS011;10994;45.486;9.190;2023-04-23T08:39:31;2.37;;;2.10;;
21665;SDS011;10994;45.486;9.190;2023-04-23T08:41:59;1.83;;;1.60;;
21665;SDS011;10994;45.486;9.190;2023-04-23T08:44:34;2.93;;;1.90;;
21665;SDS011;10994;45.486;9.190;2023-04-23T08:47:03;2.73;;;2.17;;
21665;SDS011;10994;45.486;9.190;2023-04-23T08:49:32;5.20;;;1.70;;
21665;SDS011;10994;45.486;9.190;2023-04-23T08:51:59;2.73;;;1.70;;
21665;SDS011;10994;45.486;9.190;2023-04-23T08:54:39;2.60;;;1.40;;
21665;SDS011;10994;45.486;9.190;2023-04-23T08:57:09;1.90;;;1.70;;
21665;SDS011;10994;45.486;9.190;2023-04-23T08:59:35;1.80;;;1.67;;
21665;SDS011;10994;45.486;9.190;2023-04-23T09:02:03;2.50;;;1.80;;
21665;SDS011;10994;45.486;9.190;2023-04-23T09:04:34;3.83;;;2.00;;
21665;SDS011;10994;45.486;9.190;2023-04-23T09:07:00;2.93;;;2.27;;
21665;SDS011;10994;45.486;9.190;2023-04-23T09:09:27;1.97;;;1.77;;
21665;SDS011;10994;45.486;9.190;2023-04-23T09:11:56;3.30;;;1.80;;
21665;SDS011;10994;45.486;9.190;2023-04-23T09:14:22;2.47;;;1.97;;
21665;SDS011;10994;45.486;9.190;2023-04-23T09:16:49;2.30;;;2.10;;
21665;SDS011;10994;45.486;9.190;2023-04-23T09:19:16;1.93;;;1.70;;
21665;SDS011;10994;45.486;9.190;2023-04-23T09:21:43;3.90;;;1.83;;
21665;SDS011;10994;45.486;9.190;2023-04-23T09:24:10;1.97;;;1.77;;
21665;SDS011;10994;45.486;9.190;2023-04-23T09:26:42;2.87;;;1.90;;
21665;SDS011;10994;45.486;9.190;2023-04-23T09:29:12;2.23;;;1.43;;
21665;SDS011;10994;45.486;9.190;2023-04-23T09:31:41;4.40;;;2.40;;
21665;SDS011;10994;45.486;9.190;2023-04-23T09:34:07;3.33;;;2.30;;
21665;SDS011;10994;45.486;9.190;2023-04-23T09:36:33;2.03;;;1.53;;
21665;SDS011;10994;45.486;9.190;2023-04-23T09:39:01;3.43;;;2.20;;
21665;SDS011;10994;45.486;9.190;2023-04-23T09:41:27;3.87;;;2.63;;
21665;SDS011;10994;45.486;9.190;2023-04-23T09:43:53;5.83;;;2.23;;
21665;SDS011;10994;45.486;9.190;2023-04-23T09:49:14;2.67;;;1.50;;
21665;SDS011;10994;45.486;9.190;2023-04-23T09:51:44;2.13;;;1.80;;
21665;SDS011;10994;45.486;9.190;2023-04-23T09:54:21;1.87;;;1.60;;
21665;SDS011;10994;45.486;9.190;2023-04-23T09:56:48;2.63;;;1.90;;
21665;SDS011;10994;45.486;9.190;2023-04-23T09:59:20;1.60;;;1.50;;
21665;SDS011;10994;45.486;9.190;2023-04-23T10:01:54;3.43;;;2.17;;
21665;SDS011;10994;45.486;9.190;2023-04-23T10:04:21;3.20;;;2.33;;
21665;SDS011;10994;45.486;9.190;2023-04-23T10:06:55;2.43;;;1.83;;
21665;SDS011;10994;45.486;9.190;2023-04-23T10:09:22;4.20;;;1.67;;
21665;SDS011;10994;45.486;9.190;2023-04-23T10:11:56;2.83;;;1.57;;
21665;SDS011;10994;45.486;9.190;2023-04-23T10:14:24;1.80;;;1.60;;
21665;SDS011;10994;45.486;9.190;2023-04-23T10:16:51;2.07;;;1.60;;
21665;SDS011;10994;45.486;9.190;2023-04-23T10:19:21;2.20;;;2.00;;
21665;SDS011;10994;45.486;9.190;2023-04-23T10:21:48;2.93;;;1.77;;
21665;SDS011;10994;45.486;9.190;2023-04-23T10:24:33;2.27;;;1.53;;
21665;SDS011;10994;45.486;9.190;2023-04-23T10:27:07;3.10;;;2.80;;
21665;SDS011;10994;45.486;9.190;2023-04-23T10:29:37;3.67;;;1.93;;
21665;SDS011;10994;45.486;9.190;2023-04-23T10:32:04;2.17;;;1.40;;
21665;SDS011;10994;45.486;9.190;2023-04-23T10:34:31;3.07;;;2.30;;
21665;SDS011;10994;45.486;9.190;2023-04-23T10:36:58;2.17;;;1.77;;
21665;SDS011;10994;45.486;9.190;2023-04-23T10:39:25;1.80;;;1.70;;
21665;SDS011;10994;45.486;9.190;2023-04-23T10:41:56;4.17;;;1.67;;
21665;SDS011;10994;45.486;9.190;2023-04-23T10:44:30;3.07;;;1.53;;
21665;SDS011;10994;45.486;9.190;2023-04-23T10:47:01;2.93;;;2.20;;
21665;SDS011;10994;45.486;9.190;2023-04-23T10:49:28;3.10;;;2.03;;
21665;SDS011;10994;45.486;9.190;2023-04-23T10:54:31;2.33;;;1.93;;
21665;SDS011;10994;45.486;9.190;2023-04-23T10:57:02;3.60;;;1.90;;
21665;SDS011;10994;45.486;9.190;2023-04-23T10:59:30;2.70;;;1.97;;
21665;SDS011;10994;45.486;9.190;2023-04-23T11:01:57;2.30;;;1.80;;
21665;SDS011;10994;45.486;9.190;2023-04-23T11:04:25;3.47;;;1.97;;
21665;SDS011;10994;45.486;9.190;2023-04-23T11:06:54;2.10;;;1.87;;
21665;SDS011;10994;45.486;9.190;2023-04-23T11:09:31;3.10;;;2.03;;
21665;SDS011;10994;45.486;9.190;2023-04-23T11:12:01;3.23;;;2.57;;
21665;SDS011;10994;45.486;9.190;2023-04-23T11:14:34;3.43;;;2.23;;
21665;SDS011;10994;45.486;9.190;2023-04-23T11:17:03;2.73;;;1.83;;
21665;SDS011;10994;45.486;9.190;2023-04-23T11:19:36;2.70;;;2.50;;
21665;SDS011;10994;45.486;9.190;2023-04-23T11:22:12;3.47;;;2.50;;
21665;SDS011;10994;45.486;9.190;2023-04-23T11:24:39;3.90;;;2.43;;
21665;SDS011;10994;45.486;9.190;2023-04-23T11:27:07;2.20;;;2.00;;
21665;SDS011;10994;45.486;9.190;2023-04-23T11:29:35;3.30;;;2.60;;
21665;SDS011;10994;45.486;9.190;2023-04-23T11:32:01;3.07;;;2.27;;
21665;SDS011;10994;45.486;9.190;2023-04-23T11:34:27;3.87;;;3.03;;
21665;SDS011;10994;45.486;9.190;2023-04-23T11:36:53;6.23;;;2.37;;
21665;SDS011;10994;45.486;9.190;2023-04-23T11:39:21;2.60;;;2.40;;
21665;SDS011;10994;45.486;9.190;2023-04-23T11:41:50;2.50;;;2.30;;
21665;SDS011;10994;45.486;9.190;2023-04-23T11:44:18;3.00;;;2.40;;
21665;SDS011;10994;45.486;9.190;2023-04-23T11:46:47;3.23;;;2.50;;
21665;SDS011;10994;45.486;9.190;2023-04-23T11:49:14;2.60;;;2.30;;
21665;SDS011;10994;45.486;9.190;2023-04-23T11:51:43;4.93;;;2.57;;
21665;SDS011;10994;45.486;9.190;2023-04-23T11:54:10;2.50;;;2.30;;
21665;SDS011;10994;45.486;9.190;2023-04-23T11:56:37;3.17;;;2.40;;
21665;SDS011;10994;45.486;9.190;2023-04-23T11:59:04;4.87;;;2.53;;
21665;SDS011;10994;45.486;9.190;2023-04-23T12:01:40;4.73;;;2.73;;
21665;SDS011;10994;45.486;9.190;2023-04-23T12:04:15;2.80;;;2.60;;
21665;SDS011;10994;45.486;9.190;2023-04-23T12:06:44;3.00;;;2.70;;
21665;SDS011;10994;45.486;9.190;2023-04-23T12:09:11;4.47;;;2.67;;
21665;SDS011;10994;45.486;9.190;2023-04-23T12:11:38;2.60;;;2.40;;
21665;SDS011;10994;45.486;9.190;2023-04-23T12:14:04;3.45;;;2.10;;
21665;SDS011;10994;45.486;9.190;2023-04-23T12:16:36;2.58;;;2.30;;
21665;SDS011;10994;45.486;9.190;2023-04-23T12:19:06;5.00;;;2.60;;
21665;SDS011;10994;45.486;9.190;2023-04-23T12:21:49;3.20;;;2.83;;
21665;SDS011;10994;45.486;9.190;2023-04-23T12:24:18;4.75;;;2.30;;
21665;SDS011;10994;45.486;9.190;2023-04-23T12:26:47;2.20;;;1.98;;
21665;SDS011;10994;45.486;9.190;2023-04-23T12:29:16;3.25;;;2.08;;
21665;SDS011;10994;45.486;9.190;2023-04-23T12:31:42;2.55;;;2.35;;
21665;SDS011;10994;45.486;9.190;2023-04-23T12:34:09;2.85;;;2.53;;
21665;SDS011;10994;45.486;9.190;2023-04-23T12:36:36;2.58;;;2.30;;
21665;SDS011;10994;45.486;9.190;2023-04-23T12:39:17;4.13;;;2.97;;
21665;SDS011;10994;45.486;9.190;2023-04-23T12:41:44;3.80;;;2.28;;
21665;SDS011;10994;45.486;9.190;2023-04-23T12:44:10;3.15;;;2.10;;
21665;SDS011;10994;45.486;9.190;2023-04-23T12:46:36;2.58;;;2.25;;
21665;SDS011;10994;45.486;9.190;2023-04-23T12:49:02;5.18;;;2.45;;
21665;SDS011;10994;45.486;9.190;2023-04-23T12:51:29;2.92;;;2.60;;
21665;SDS011;10994;45.486;9.190;2023-04-23T12:53:55;3.22;;;2.20;;
21665;SDS011;10994;45.486;9.190;2023-04-23T12:56:21;3.45;;;2.65;;
21665;SDS011;10994;45.486;9.190;2023-04-23T12:58:47;2.40;;;2.20;;
21665;SDS011;10994;45.486;9.190;2023-04-23T13:01:13;4.63;;;2.70;;
21665;SDS011;10994;45.486;9.190;2023-04-23T13:03:39;2.63;;;2.33;;
21665;SDS011;10994;45.486;9.190;2023-04-23T13:06:05;2.20;;;2.00;;
21665;SDS011;10994;45.486;9.190;2023-04-23T13:08:32;2.42;;;2.20;;
21665;SDS011;10994;45.486;9.190;2023-04-23T13:10:58;2.25;;;2.00;;
21665;SDS011;10994;45.486;9.190;2023-04-23T13:13:25;2.42;;;2.17;;
21665;SDS011;10994;45.486;9.190;2023-04-23T13:15:51;3.30;;;2.33;;
21665;SDS011;10994;45.486;9.190;2023-04-23T13:18:18;3.35;;;2.10;;
21665;SDS011;10994;45.486;9.190;2023-04-23T13:20:48;2.95;;;2.50;;
21665;SDS011;10994;45.486;9.190;2023-04-23T13:23:14;2.33;;;2.05;;
21665;SDS011;10994;45.486;9.190;2023-04-23T13:25:40;2.15;;;1.95;;
21665;SDS011;10994;45.486;9.190;2023-04-23T13:28:06;2.40;;;2.20;;
21665;SDS011;10994;45.486;9.190;2023-04-23T13:30:33;3.97;;;2.65;;
21665;SDS011;10994;45.486;9.190;2023-04-23T13:32:59;3.65;;;2.10;;
21665;SDS011;10994;45.486;9.190;2023-04-23T13:35:25;2.95;;;2.55;;
21665;SDS011;10994;45.486;9.190;2023-04-23T13:37:51;3.10;;;2.17;;
21665;SDS011;10994;45.486;9.190;2023-04-23T13:40:17;2.38;;;2.17;;
21665;SDS011;10994;45.486;9.190;2023-04-23T13:42:43;2.50;;;2.28;;
21665;SDS011;10994;45.486;9.190;2023-04-23T13:45:12;4.53;;;2.78;;
21665;SDS011;10994;45.486;9.190;2023-04-23T13:47:38;2.38;;;2.15;;
21665;SDS011;10994;45.486;9.190;2023-04-23T13:50:05;3.20;;;2.90;;
21665;SDS011;10994;45.486;9.190;2023-04-23T13:52:35;3.42;;;3.13;;
21665;SDS011;10994;45.486;9.190;2023-04-23T13:55:03;5.85;;;4.07;;
21665;SDS011;10994;45.486;9.190;2023-04-23T13:57:31;3.50;;;2.92;;
21665;SDS011;10994;45.486;9.190;2023-04-23T13:59:57;4.18;;;3.78;;
21665;SDS011;10994;45.486;9.190;2023-04-23T14:02:24;4.00;;;3.20;;
21665;SDS011;10994;45.486;9.190;2023-04-23T14:04:50;2.70;;;2.50;;
21665;SDS011;10994;45.486;9.190;2023-04-23T14:07:16;5.32;;;2.83;;
21665;SDS011;10994;45.486;9.190;2023-04-23T14:09:43;3.03;;;2.65;;
21665;SDS011;10994;45.486;9.190;2023-04-23T14:12:11;3.25;;;2.88;;
21665;SDS011;10994;45.486;9.190;2023-04-23T14:14:37;3.67;;;2.65;;
21665;SDS011;10994;45.486;9.190;2023-04-23T14:17:03;2.90;;;2.63;;
21665;SDS011;10994;45.486;9.190;2023-04-23T14:19:29;3.53;;;2.28;;
21665;SDS011;10994;45.486;9.190;2023-04-23T14:21:58;2.80;;;2.10;;
21665;SDS011;10994;45.486;9.190;2023-04-23T14:24:28;2.75;;;2.55;;
21665;SDS011;10994;45.486;9.190;2023-04-23T14:26:57;2.92;;;2.72;;
21665;SDS011;10994;45.486;9.190;2023-04-23T14:29:45;3.58;;;2.55;;
21665;SDS011;10994;45.486;9.190;2023-04-23T14:32:10;3.63;;;2.58;;
21665;SDS011;10994;45.486;9.190;2023-04-23T14:34:37;3.30;;;3.00;;
21665;SDS011;10994;45.486;9.190;2023-04-23T14:37:03;4.15;;;3.13;;
21665;SDS011;10994;45.486;9.190;2023-04-23T14:39:30;5.00;;;3.70;;
21665;SDS011;10994;45.486;9.190;2023-04-23T14:41:56;4.18;;;3.22;;
21665;SDS011;10994;45.486;9.190;2023-04-23T14:44:22;4.72;;;3.30;;
21665;SDS011;10994;45.486;9.190;2023-04-23T14:46:50;3.47;;;3.17;;
21665;SDS011;10994;45.486;9.190;2023-04-23T14:49:16;3.42;;;3.10;;